sensor_id;sensor_type;location;lat;lon;timestamp;pressure;altitude;pressure_sealevel;temperature;humidity
54389;BME280;40975;50.390;8.640;2023-03-26T00:01:26;98337.06;;;6.84;100.00
54389;BME280;40975;50.390;8.640;2023-03-26T00:03:52;98345.25;;;6.81;100.00
54389;BME280;40975;50.390;8.640;2023-03-26T00:06:27;98343.31;;;6.83;100.00
54389;BME280;40975;50.390;8.640;2023-03-26T00:08:54;98351.66;;;6.88;100.00
54389;BME280;40975;50.390;8.640;2023-03-26T00:11:21;98342.72;;;6.89;100.00
54389;BME280;40975;50.390;8.640;2023-03-26T00:13:47;98355.50;;;6.94;100.00
54389;BME280;40975;50.390;8.640;2023-03-26T00:16:16;98350.09;;;6.95;100.00
54389;BME280;40975;50.390;8.640;2023-03-26T00:18:42;98364.81;;;6.98;100.00
54389;BME280;40975;50.390;8.640;2023-03-26T00:21:10;98360.91;;;7.02;100.00
54389;BME280;40975;50.390;8.640;2023-03-26T00:23:37;98357.84;;;7.07;100.00
54389;BME280;40975;50.390;8.640;2023-03-26T00:26:04;98365.06;;;7.05;100.00
54389;BME280;40975;50.390;8.640;2023-03-26T00:28:40;98368.25;;;7.08;100.00
54389;BME280;40975;50.390;8.640;2023-03-26T00:31:08;98359.91;;;7.13;100.00
54389;BME280;40975;50.390;8.640;2023-03-26T00:33:34;98360.19;;;7.10;100.00
54389;BME280;40975;50.390;8.640;2023-03-26T00:36:03;98363.25;;;7.05;100.00
54389;BME280;40975;50.390;8.640;2023-03-26T00:38:30;98364.81;;;7.08;100.00
54389;BME280;40975;50.390;8.640;2023-03-26T00:40:58;98365.78;;;7.07;100.00
54389;BME280;40975;50.390;8.640;2023-03-26T00:43:31;98360.91;;;7.02;100.00
54389;BME280;40975;50.390;8.640;2023-03-26T00:45:57;98371.16;;;7.05;100.00
54389;BME280;40975;50.390;8.640;2023-03-26T00:48:23;98364.22;;;7.04;100.00
54389;BME280;40975;50.390;8.640;2023-03-26T00:50:51;98364.53;;;7.01;100.00
54389;BME280;40975;50.390;8.640;2023-03-26T00:53:17;98364.66;;;6.99;100.00
54389;BME280;40975;50.390;8.640;2023-03-26T00:55:46;98365.06;;;6.95;100.00
54389;BME280;40975;50.390;8.640;2023-03-26T00:58:13;98361.78;;;6.93;100.00
54389;BME280;40975;50.390;8.640;2023-03-26T01:00:45;98353.72;;;6.94;100.00
54389;BME280;40975;50.390;8.640;2023-03-26T01:03:14;98351.66;;;6.88;100.00
54389;BME280;40975;50.390;8.640;2023-03-26T01:05:43;98358.16;;;6.84;100.00
54389;BME280;40975;50.390;8.640;2023-03-26T01:10:47;98343.59;;;6.80;100.00
54389;BME280;40975;50.390;8.640;2023-03-26T01:13:21;98345.41;;;6.79;100.00
54389;BME280;40975;50.390;8.640;2023-03-26T01:15:48;98336.09;;;6.75;100.00
54389;BME280;40975;50.390;8.640;2023-03-26T01:18:22;98339.16;;;6.71;100.00
54389;BME280;40975;50.390;8.640;2023-03-26T01:20:53;98340.56;;;6.65;100.00
54389;BME280;40975;50.390;8.640;2023-03-26T01:23:29;98335.69;;;6.60;100.00
54389;BME280;40975;50.390;8.640;2023-03-26T01:26:09;98337.78;;;6.57;100.00
54389;BME280;40975;50.390;8.640;2023-03-26T01:28:36;98336.69;;;6.49;100.00
54389;BME280;40975;50.390;8.640;2023-03-26T01:34:00;98326.84;;;6.51;100.00
54389;BME280;40975;50.390;8.640;2023-03-26T01:36:46;98327.81;;;6.50;100.00
54389;BME280;40975;50.390;8.640;2023-03-26T01:42:03;98320.03;;;6.49;100.00
54389;BME280;40975;50.390;8.640;2023-03-26T01:45:14;98315.06;;;6.46;100.00
54389;BME280;40975;50.390;8.640;2023-03-26T01:47:42;98322.28;;;6.44;100.00
54389;BME280;40975;50.390;8.640;2023-03-26T01:50:08;98307.97;;;6.46;100.00
54389;BME280;40975;50.390;8.640;2023-03-26T01:52:34;98305.06;;;6.40;100.00
54389;BME280;40975;50.390;8.640;2023-03-26T01:54:59;98305.06;;;6.40;100.00
54389;BME280;40975;50.390;8.640;2023-03-26T02:05:40;98299.09;;;6.28;100.00
54389;BME280;40975;50.390;8.640;2023-03-26T02:08:16;98283.72;;;6.23;100.00
54389;BME280;40975;50.390;8.640;2023-03-26T02:10:51;98288.44;;;6.19;100.00
54389;BME280;40975;50.390;8.640;2023-03-26T02:13:19;98294.28;;;6.13;100.00
54389;BME280;40975;50.390;8.640;2023-03-26T02:16:00;98280.41;;;6.11;100.00
54389;BME280;40975;50.390;8.640;2023-03-26T02:18:26;98279.69;;;6.09;100.00
54389;BME280;40975;50.390;8.640;2023-03-26T02:21:04;98273.72;;;6.07;100.00
54389;BME280;40975;50.390;8.640;2023-03-26T02:23:31;98280.28;;;6.03;100.00
54389;BME280;40975;50.390;8.640;2023-03-26T02:26:08;98276.34;;;5.97;100.00
54389;BME280;40975;50.390;8.640;2023-03-26T02:28:43;98267.19;;;5.91;100.00
54389;BME280;40975;50.390;8.640;2023-03-26T02:31:09;98271.75;;;5.89;100.00
54389;BME280;40975;50.390;8.640;2023-03-26T02:33:35;98265.25;;;5.84;100.00
54389;BME280;40975;50.390;8.640;2023-03-26T02:36:00;98265.38;;;5.82;100.00
54389;BME280;40975;50.390;8.640;2023-03-26T02:38:28;98263.16;;;5.78;100.00
54389;BME280;40975;50.390;8.640;2023-03-26T02:40:54;98255.09;;;5.69;100.00
54389;BME280;40975;50.390;8.640;2023-03-26T02:43:24;98260.66;;;5.66;100.00
54389;BME280;40975;50.390;8.640;2023-03-26T02:45:49;98263.56;;;5.63;100.00
54389;BME280;40975;50.390;8.640;2023-03-26T02:48:37;98253.28;;;5.60;100.00
54389;BME280;40975;50.390;8.640;2023-03-26T02:51:15;98255.25;;;5.58;100.00
54389;BME280;40975;50.390;8.640;2023-03-26T02:54:08;98246.50;;;5.57;100.00
54389;BME280;40975;50.390;8.640;2023-03-26T02:56:54;98238.03;;;5.54;100.00
54389;BME280;40975;50.390;8.640;2023-03-26T02:59:43;98236.94;;;5.56;100.00
54389;BME280;40975;50.390;8.640;2023-03-26T03:02:39;98233.19;;;5.59;100.00
54389;BME280;40975;50.390;8.640;2023-03-26T03:05:40;98220.03;;;5.59;100.00
54389;BME280;40975;50.390;8.640;2023-03-26T03:08:29;98221.69;;;5.60;100.00
54389;BME280;40975;50.390;8.640;2023-03-26T03:11:16;98225.69;;;5.54;100.00
54389;BME280;40975;50.390;8.640;2023-03-26T03:13:44;98215.47;;;5.51;100.00
54389;BME280;40975;50.390;8.640;2023-03-26T03:16:13;98219.88;;;5.51;100.00
54389;BME280;40975;50.390;8.640;2023-03-26T03:18:39;98218.81;;;5.53;100.00
54389;BME280;40975;50.390;8.640;2023-03-26T03:21:05;98214.34;;;5.54;100.00
54389;BME280;40975;50.390;8.640;2023-03-26T03:23:31;98211.72;;;5.54;100.00
54389;BME280;40975;50.390;8.640;2023-03-26T03:26:12;98200.38;;;5.53;100.00
54389;BME280;40975;50.390;8.640;2023-03-26T03:28:40;98204.66;;;5.54;100.00
54389;BME280;40975;50.390;8.640;2023-03-26T03:31:06;98199.53;;;5.53;100.00
54389;BME280;40975;50.390;8.640;2023-03-26T03:33:34;98196.91;;;5.53;100.00
54389;BME280;40975;50.390;8.640;2023-03-26T03:35:59;98198.72;;;5.52;100.00
54389;BME280;40975;50.390;8.640;2023-03-26T03:38:26;98199.81;;;5.59;100.00
54389;BME280;40975;50.390;8.640;2023-03-26T03:40:52;98192.47;;;5.63;100.00
54389;BME280;40975;50.390;8.640;2023-03-26T03:43:19;98181.94;;;5.63;100.00
54389;BME280;40975;50.390;8.640;2023-03-26T03:46:03;98176.53;;;5.65;100.00
54389;BME280;40975;50.390;8.640;2023-03-26T03:48:35;98179.31;;;5.63;100.00
54389;BME280;40975;50.390;8.640;2023-03-26T03:51:04;98181.78;;;5.65;100.00
54389;BME280;40975;50.390;8.640;2023-03-26T03:53:39;98187.47;;;5.60;100.00
54389;BME280;40975;50.390;8.640;2023-03-26T03:56:06;98190.38;;;5.47;100.00
54389;BME280;40975;50.390;8.640;2023-03-26T03:58:52;98188.72;;;5.36;100.00
54389;BME280;40975;50.390;8.640;2023-03-26T04:01:27;98182.19;;;5.31;100.00
54389;BME280;40975;50.390;8.640;2023-03-26T04:04:00;98178.03;;;5.28;100.00
54389;BME280;40975;50.390;8.640;2023-03-26T04:06:38;98176.78;;;5.22;100.00
54389;BME280;40975;50.390;8.640;2023-03-26T04:09:04;98161.00;;;5.22;100.00
54389;BME280;40975;50.390;8.640;2023-03-26T04:11:29;98157.22;;;5.15;100.00
54389;BME280;40975;50.390;8.640;2023-03-26T04:14:21;98151.72;;;5.18;100.00
54389;BME280;40975;50.390;8.640;2023-03-26T04:16:58;98150.59;;;5.11;100.00
54389;BME280;40975;50.390;8.640;2023-03-26T04:19:24;98151.13;;;5.05;100.00
54389;BME280;40975;50.390;8.640;2023-03-26T04:21:53;98148.78;;;5.02;100.00
54389;BME280;40975;50.390;8.640;2023-03-26T04:24:19;98142.97;;;4.98;100.00
54389;BME280;40975;50.390;8.640;2023-03-26T04:27:18;98134.78;;;4.91;100.00
54389;BME280;40975;50.390;8.640;2023-03-26T04:30:01;98131.69;;;4.86;100.00
54389;BME280;40975;50.390;8.640;2023-03-26T04:32:28;98129.19;;;4.75;100.00
54389;BME280;40975;50.390;8.640;2023-03-26T04:34:56;98133.31;;;4.67;100.00
54389;BME280;40975;50.390;8.640;2023-03-26T04:40:17;98127.75;;;4.61;100.00
54389;BME280;40975;50.390;8.640;2023-03-26T04:43:14;98125.81;;;4.53;100.00
54389;BME280;40975;50.390;8.640;2023-03-26T04:46:02;98127.75;;;4.61;100.00
54389;BME280;40975;50.390;8.640;2023-03-26T04:48:32;98125.97;;;4.61;100.00
54389;BME280;40975;50.390;8.640;2023-03-26T04:50:58;98117.63;;;4.56;100.00
54389;BME280;40975;50.390;8.640;2023-03-26T04:53:24;98114.72;;;4.49;100.00
54389;BME280;40975;50.390;8.640;2023-03-26T04:56:35;98106.88;;;4.59;100.00
54389;BME280;40975;50.390;8.640;2023-03-26T04:59:19;98108.28;;;4.63;100.00
54389;BME280;40975;50.390;8.640;2023-03-26T05:01:52;98100.81;;;4.69;100.00
54389;BME280;40975;50.390;8.640;2023-03-26T05:04:18;98091.81;;;4.71;100.00
54389;BME280;40975;50.390;8.640;2023-03-26T05:06:44;98084.06;;;4.70;100.00
54389;BME280;40975;50.390;8.640;2023-03-26T05:09:18;98082.97;;;4.72;100.00
54389;BME280;40975;50.390;8.640;2023-03-26T05:12:03;98077.44;;;4.75;100.00
54389;BME280;40975;50.390;8.640;2023-03-26T05:14:36;98069.97;;;4.80;100.00
54389;BME280;40975;50.390;8.640;2023-03-26T05:17:04;98070.41;;;4.86;100.00
54389;BME280;40975;50.390;8.640;2023-03-26T05:19:37;98053.69;;;4.87;100.00
54389;BME280;40975;50.390;8.640;2023-03-26T05:22:03;98057.81;;;4.89;100.00
54389;BME280;40975;50.390;8.640;2023-03-26T05:24:32;98052.81;;;4.86;100.00
54389;BME280;40975;50.390;8.640;2023-03-26T05:26:57;98046.59;;;4.77;100.00
54389;BME280;40975;50.390;8.640;2023-03-26T05:29:23;98041.75;;;4.82;100.00
54389;BME280;40975;50.390;8.640;2023-03-26T05:31:51;98035.38;;;4.85;100.00
54389;BME280;40975;50.390;8.640;2023-03-26T05:34:16;98026.53;;;4.86;100.00
54389;BME280;40975;50.390;8.640;2023-03-26T05:36:44;98026.28;;;4.89;100.00
54389;BME280;40975;50.390;8.640;2023-03-26T05:39:27;98022.25;;;4.95;100.00
54389;BME280;40975;50.390;8.640;2023-03-26T05:42:20;98015.78;;;4.99;100.00
54389;BME280;40975;50.390;8.640;2023-03-26T05:45:03;98011.19;;;5.01;100.00
54389;BME280;40975;50.390;8.640;2023-03-26T05:47:31;98009.09;;;5.05;100.00
54389;BME280;40975;50.390;8.640;2023-03-26T05:49:56;98007.88;;;5.09;100.00
54389;BME280;40975;50.390;8.640;2023-03-26T05:52:23;98004.28;;;5.10;100.00
54389;BME280;40975;50.390;8.640;2023-03-26T05:55:07;98002.47;;;5.10;100.00
54389;BME280;40975;50.390;8.640;2023-03-26T05:57:51;98005.09;;;5.10;100.00
54389;BME280;40975;50.390;8.640;2023-03-26T06:00:37;97987.38;;;5.12;100.00
54389;BME280;40975;50.390;8.640;2023-03-26T06:03:04;97988.47;;;5.20;100.00
54389;BME280;40975;50.390;8.640;2023-03-26T06:05:48;97978.22;;;5.26;100.00
54389;BME280;40975;50.390;8.640;2023-03-26T06:08:44;97979.03;;;5.37;100.00
54389;BME280;40975;50.390;8.640;2023-03-26T06:11:16;97975.00;;;5.42;100.00
54389;BME280;40975;50.390;8.640;2023-03-26T06:13:42;97973.63;;;5.48;100.00
54389;BME280;40975;50.390;8.640;2023-03-26T06:16:09;97965.97;;;5.55;100.00
54389;BME280;40975;50.390;8.640;2023-03-26T06:18:39;97967.06;;;5.62;100.00
54389;BME280;40975;50.390;8.640;2023-03-26T06:21:21;97955.28;;;5.66;100.00
54389;BME280;40975;50.390;8.640;2023-03-26T06:23:58;97955.53;;;5.73;100.00
54389;BME280;40975;50.390;8.640;2023-03-26T06:27:01;97953.28;;;5.78;100.00
54389;BME280;40975;50.390;8.640;2023-03-26T06:29:45;97949.41;;;5.82;100.00
54389;BME280;40975;50.390;8.640;2023-03-26T06:32:17;97942.16;;;5.84;100.00
54389;BME280;40975;50.390;8.640;2023-03-26T06:34:47;97948.28;;;5.85;100.00
54389;BME280;40975;50.390;8.640;2023-03-26T06:37:14;97945.75;;;5.93;100.00
54389;BME280;40975;50.390;8.640;2023-03-26T06:39:40;97942.13;;;5.94;100.00
54389;BME280;40975;50.390;8.640;2023-03-26T06:42:22;97943.66;;;6.06;100.00
54389;BME280;40975;50.390;8.640;2023-03-26T06:45:11;97941.81;;;6.07;100.00
54389;BME280;40975;50.390;8.640;2023-03-26T06:48:02;97936.00;;;6.13;100.00
54389;BME280;40975;50.390;8.640;2023-03-26T06:50:42;97931.09;;;6.18;100.00
54389;BME280;40975;50.390;8.640;2023-03-26T06:53:11;97929.66;;;6.24;100.00
54389;BME280;40975;50.390;8.640;2023-03-26T06:55:55;97931.84;;;6.29;100.00
54389;BME280;40975;50.390;8.640;2023-03-26T06:58:33;97926.97;;;6.34;100.00
54389;BME280;40975;50.390;8.640;2023-03-26T07:01:17;97912.53;;;6.38;100.00
54389;BME280;40975;50.390;8.640;2023-03-26T07:04:01;97913.88;;;6.42;100.00
54389;BME280;40975;50.390;8.640;2023-03-26T07:06:46;97890.91;;;6.34;100.00
54389;BME280;40975;50.390;8.640;2023-03-26T07:09:29;97906.03;;;6.32;100.00
54389;BME280;40975;50.390;8.640;2023-03-26T07:12:13;97901.97;;;6.38;100.00
54389;BME280;40975;50.390;8.640;2023-03-26T07:14:51;97897.56;;;6.38;100.00
54389;BME280;40975;50.390;8.640;2023-03-26T07:17:34;97897.09;;;6.43;100.00
54389;BME280;40975;50.390;8.640;2023-03-26T07:20:11;97893.84;;;6.49;100.00
54389;BME280;40975;50.390;8.640;2023-03-26T07:22:36;97885.50;;;6.54;100.00
54389;BME280;40975;50.390;8.640;2023-03-26T07:25:05;97893.41;;;6.54;100.00
54389;BME280;40975;50.390;8.640;2023-03-26T07:30:57;97897.69;;;6.55;100.00
54389;BME280;40975;50.390;8.640;2023-03-26T07:36:28;97893.63;;;6.61;100.00
54389;BME280;40975;50.390;8.640;2023-03-26T07:42:30;97884.75;;;6.62;100.00
54389;BME280;40975;50.390;8.640;2023-03-26T07:48:20;97877.47;;;6.64;100.00
54389;BME280;40975;50.390;8.640;2023-03-26T07:51:18;97870.03;;;6.59;100.00
54389;BME280;40975;50.390;8.640;2023-03-26T07:54:08;97869.22;;;6.59;100.00
54389;BME280;40975;50.390;8.640;2023-03-26T07:56:47;97867.41;;;6.59;100.00
54389;BME280;40975;50.390;8.640;2023-03-26T07:59:39;97871.78;;;6.68;100.00
54389;BME280;40975;50.390;8.640;2023-03-26T08:02:34;97861.06;;;6.70;100.00
54389;BME280;40975;50.390;8.640;2023-03-26T08:05:28;97858.44;;;6.70;100.00
54389;BME280;40975;50.390;8.640;2023-03-26T08:08:23;97852.88;;;6.73;100.00
54389;BME280;40975;50.390;8.640;2023-03-26T08:11:36;97851.50;;;6.69;100.00
54389;BME280;40975;50.390;8.640;2023-03-26T08:14:12;97851.81;;;6.66;100.00
54389;BME280;40975;50.390;8.640;2023-03-26T08:16:53;97854.03;;;6.52;100.00
54389;BME280;40975;50.390;8.640;2023-03-26T08:22:16;97851.44;;;6.61;100.00
54389;BME280;40975;50.390;8.640;2023-03-26T08:27:39;97849.31;;;6.64;100.00
54389;BME280;40975;50.390;8.640;2023-03-26T08:30:10;97841.59;;;6.63;100.00
54389;BME280;40975;50.390;8.640;2023-03-26T08:32:38;97838.63;;;6.66;100.00
54389;BME280;40975;50.390;8.640;2023-03-26T08:35:04;97841.59;;;6.63;100.00
54389;BME280;40975;50.390;8.640;2023-03-26T08:37:30;97839.53;;;6.57;100.00
54389;BME280;40975;50.390;8.640;2023-03-26T08:39:55;97836.22;;;6.54;100.00
54389;BME280;40975;50.390;8.640;2023-03-26T08:42:48;97834.50;;;6.45;100.00
54389;BME280;40975;50.390;8.640;2023-03-26T08:54:23;97831.13;;;6.35;100.00
54389;BME280;40975;50.390;8.640;2023-03-26T08:57:09;97834.06;;;6.32;100.00
54389;BME280;40975;50.390;8.640;2023-03-26T09:02:52;97825.78;;;6.27;100.00
54389;BME280;40975;50.390;8.640;2023-03-26T09:08:55;97806.06;;;6.31;100.00
54389;BME280;40975;50.390;8.640;2023-03-26T09:12:13;97797.84;;;6.34;100.00
54389;BME280;40975;50.390;8.640;2023-03-26T09:15:00;97789.50;;;6.38;100.00
54389;BME280;40975;50.390;8.640;2023-03-26T09:20:33;97779.66;;;6.49;100.00
54389;BME280;40975;50.390;8.640;2023-03-26T09:31:44;97788.03;;;6.44;100.00
54389;BME280;40975;50.390;8.640;2023-03-26T09:37:32;97770.66;;;6.51;100.00
54389;BME280;40975;50.390;8.640;2023-03-26T09:40:17;97758.69;;;6.39;100.00
54389;BME280;40975;50.390;8.640;2023-03-26T09:48:19;97761.69;;;6.44;100.00
54389;BME280;40975;50.390;8.640;2023-03-26T09:51:15;97755.81;;;6.50;100.00
54389;BME280;40975;50.390;8.640;2023-03-26T09:56:37;97765.78;;;6.38;100.00
54389;BME280;40975;50.390;8.640;2023-03-26T09:59:25;97764.59;;;6.33;100.00
54389;BME280;40975;50.390;8.640;2023-03-26T10:07:52;97759.78;;;6.28;100.00
54389;BME280;40975;50.390;8.640;2023-03-26T10:10:53;97756.22;;;6.19;100.00
54389;BME280;40975;50.390;8.640;2023-03-26T10:13:51;97754.63;;;6.27;100.00
54389;BME280;40975;50.390;8.640;2023-03-26T10:16:31;97749.59;;;6.33;100.00
54389;BME280;40975;50.390;8.640;2023-03-26T10:22:07;97729.59;;;7.10;100.00
54389;BME280;40975;50.390;8.640;2023-03-26T10:24:52;97735.75;;;8.03;100.00
54389;BME280;40975;50.390;8.640;2023-03-26T10:30:21;97733.28;;;8.26;100.00
54389;BME280;40975;50.390;8.640;2023-03-26T10:38:41;97722.63;;;9.63;100.00
54389;BME280;40975;50.390;8.640;2023-03-26T10:41:27;97711.75;;;8.79;100.00
54389;BME280;40975;50.390;8.640;2023-03-26T10:44:29;97718.41;;;8.42;100.00
54389;BME280;40975;50.390;8.640;2023-03-26T10:55:24;97691.97;;;7.75;100.00
54389;BME280;40975;50.390;8.640;2023-03-26T10:58:26;97682.75;;;7.96;100.00
54389;BME280;40975;50.390;8.640;2023-03-26T11:00:57;97686.06;;;8.06;100.00
54389;BME280;40975;50.390;8.640;2023-03-26T11:06:53;97680.25;;;8.52;100.00
54389;BME280;40975;50.390;8.640;2023-03-26T11:09:35;97687.63;;;8.74;100.00
54389;BME280;40975;50.390;8.640;2023-03-26T11:12:24;97686.78;;;9.53;100.00
54389;BME280;40975;50.390;8.640;2023-03-26T11:15:28;97685.28;;;9.27;100.00
54389;BME280;40975;50.390;8.640;2023-03-26T11:20:47;97685.34;;;8.46;100.00
54389;BME280;40975;50.390;8.640;2023-03-26T11:26:03;97680.13;;;8.13;100.00
54389;BME280;40975;50.390;8.640;2023-03-26T11:29:00;97681.94;;;8.04;100.00
54389;BME280;40975;50.390;8.640;2023-03-26T11:31:50;97687.72;;;8.07;100.00
54389;BME280;40975;50.390;8.640;2023-03-26T11:34:25;97685.38;;;8.04;100.00
54389;BME280;40975;50.390;8.640;2023-03-26T11:36:53;97680.44;;;7.85;100.00
54389;BME280;40975;50.390;8.640;2023-03-26T11:39:24;97674.34;;;7.84;100.00
54389;BME280;40975;50.390;8.640;2023-03-26T11:41:55;97661.44;;;7.81;100.00
54389;BME280;40975;50.390;8.640;2023-03-26T11:44:34;97654.50;;;7.80;100.00
54389;BME280;40975;50.390;8.640;2023-03-26T11:47:05;97660.28;;;7.84;100.00
54389;BME280;40975;50.390;8.640;2023-03-26T11:49:34;97658.63;;;8.16;100.00
54389;BME280;40975;50.390;8.640;2023-03-26T11:52:01;97651.97;;;8.61;100.00
54389;BME280;40975;50.390;8.640;2023-03-26T11:54:28;97652.75;;;8.78;100.00
54389;BME280;40975;50.390;8.640;2023-03-26T11:57:05;97644.91;;;8.93;100.00
54389;BME280;40975;50.390;8.640;2023-03-26T11:59:39;97649.81;;;9.05;100.00
54389;BME280;40975;50.390;8.640;2023-03-26T12:04:43;97651.22;;;9.47;100.00
54389;BME280;40975;50.390;8.640;2023-03-26T12:07:17;97652.41;;;9.44;100.00
54389;BME280;40975;50.390;8.640;2023-03-26T12:09:52;97641.22;;;9.34;100.00
54389;BME280;40975;50.390;8.640;2023-03-26T12:12:18;97633.13;;;9.04;100.00
54389;BME280;40975;50.390;8.640;2023-03-26T12:14:45;97632.50;;;8.94;100.00
54389;BME280;40975;50.390;8.640;2023-03-26T12:17:14;97625.25;;;8.88;100.00
54389;BME280;40975;50.390;8.640;2023-03-26T12:19:48;97628.94;;;8.78;100.00
54389;BME280;40975;50.390;8.640;2023-03-26T12:22:30;97630.09;;;8.76;100.00
54389;BME280;40975;50.390;8.640;2023-03-26T12:25:20;97612.22;;;8.78;100.00
54389;BME280;40975;50.390;8.640;2023-03-26T12:27:51;97616.00;;;8.83;100.00
54389;BME280;40975;50.390;8.640;2023-03-26T12:30:26;97605.94;;;8.79;100.00
54389;BME280;40975;50.390;8.640;2023-03-26T12:32:59;97605.94;;;8.79;100.00
54389;BME280;40975;50.390;8.640;2023-03-26T12:35:30;97593.41;;;8.73;100.00
54389;BME280;40975;50.390;8.640;2023-03-26T12:38:23;97597.88;;;8.72;100.00
54389;BME280;40975;50.390;8.640;2023-03-26T12:41:13;97599.53;;;8.73;100.00
54389;BME280;40975;50.390;8.640;2023-03-26T12:43:47;97598.19;;;8.69;100.00
54389;BME280;40975;50.390;8.640;2023-03-26T12:48:57;97587.94;;;8.74;100.00
54389;BME280;40975;50.390;8.640;2023-03-26T12:51:47;97596.13;;;8.96;100.00
54389;BME280;40975;50.390;8.640;2023-03-26T12:59:39;97583.75;;;9.43;100.00
54389;BME280;40975;50.390;8.640;2023-03-26T13:14:08;97562.16;;;10.22;100.00
54389;BME280;40975;50.390;8.640;2023-03-26T13:19:41;97551.69;;;11.17;100.00
54389;BME280;40975;50.390;8.640;2023-03-26T13:22:21;97549.53;;;11.28;100.00
54389;BME280;40975;50.390;8.640;2023-03-26T13:28:07;97536.03;;;11.23;100.00
54389;BME280;40975;50.390;8.640;2023-03-26T13:31:04;97534.19;;;10.86;99.47
54389;BME280;40975;50.390;8.640;2023-03-26T13:33:39;97532.56;;;10.85;100.00
54389;BME280;40975;50.390;8.640;2023-03-26T13:36:17;97526.31;;;10.93;99.76
54389;BME280;40975;50.390;8.640;2023-03-26T13:38:51;97518.28;;;11.51;100.00
54389;BME280;40975;50.390;8.640;2023-03-26T13:47:19;97487.78;;;12.04;89.11
54389;BME280;40975;50.390;8.640;2023-03-26T13:49:56;97485.59;;;11.79;90.52
54389;BME280;40975;50.390;8.640;2023-03-26T13:52:42;97475.34;;;11.76;87.01
54389;BME280;40975;50.390;8.640;2023-03-26T13:55:22;97471.81;;;11.97;88.88
54389;BME280;40975;50.390;8.640;2023-03-26T13:57:55;97481.13;;;11.87;87.08
54389;BME280;40975;50.390;8.640;2023-03-26T14:00:25;97469.59;;;11.73;88.11
54389;BME280;40975;50.390;8.640;2023-03-26T14:03:19;97468.78;;;11.44;86.45
54389;BME280;40975;50.390;8.640;2023-03-26T14:05:50;97476.84;;;11.57;87.68
54389;BME280;40975;50.390;8.640;2023-03-26T14:08:33;97468.63;;;11.80;87.62
54389;BME280;40975;50.390;8.640;2023-03-26T14:11:10;97484.03;;;11.63;86.54
54389;BME280;40975;50.390;8.640;2023-03-26T14:14:05;97477.59;;;11.51;87.84
54389;BME280;40975;50.390;8.640;2023-03-26T14:16:55;97475.47;;;11.40;88.35
54389;BME280;40975;50.390;8.640;2023-03-26T14:22:36;97477.59;;;11.01;86.76
54389;BME280;40975;50.390;8.640;2023-03-26T14:28:37;97502.53;;;10.48;94.74
54389;BME280;40975;50.390;8.640;2023-03-26T14:31:22;97522.28;;;9.86;100.00
54389;BME280;40975;50.390;8.640;2023-03-26T14:34:26;97535.06;;;9.21;100.00
54389;BME280;40975;50.390;8.640;2023-03-26T14:37:08;97522.16;;;8.71;100.00
54389;BME280;40975;50.390;8.640;2023-03-26T14:39:56;97517.78;;;8.55;100.00
54389;BME280;40975;50.390;8.640;2023-03-26T14:42:49;97528.63;;;8.68;100.00
54389;BME280;40975;50.390;8.640;2023-03-26T14:45:42;97534.53;;;9.02;100.00
54389;BME280;40975;50.390;8.640;2023-03-26T14:53:35;97538.91;;;8.63;100.00
54389;BME280;40975;50.390;8.640;2023-03-26T14:58:49;97522.28;;;7.90;100.00
54389;BME280;40975;50.390;8.640;2023-03-26T15:01:27;97528.59;;;7.64;100.00
54389;BME280;40975;50.390;8.640;2023-03-26T15:11:49;97537.84;;;7.10;100.00
54389;BME280;40975;50.390;8.640;2023-03-26T15:20:17;97545.59;;;7.12;100.00
54389;BME280;40975;50.390;8.640;2023-03-26T15:31:26;97554.84;;;7.24;100.00
54389;BME280;40975;50.390;8.640;2023-03-26T15:42:14;97588.28;;;7.07;100.00
54389;BME280;40975;50.390;8.640;2023-03-26T15:44:53;97595.88;;;7.02;100.00
54389;BME280;40975;50.390;8.640;2023-03-26T15:47:33;97598.81;;;6.91;100.00
54389;BME280;40975;50.390;8.640;2023-03-26T15:55:32;97589.56;;;6.87;100.00
54389;BME280;40975;50.390;8.640;2023-03-26T15:58:13;97579.78;;;6.79;100.00
54389;BME280;40975;50.390;8.640;2023-03-26T16:00:53;97578.28;;;6.68;100.00
54389;BME280;40975;50.390;8.640;2023-03-26T16:03:38;97586.69;;;6.72;100.00
54389;BME280;40975;50.390;8.640;2023-03-26T16:06:19;97578.09;;;6.61;100.00
54389;BME280;40975;50.390;8.640;2023-03-26T16:12:23;97584.56;;;6.75;100.00
54389;BME280;40975;50.390;8.640;2023-03-26T16:17:00;97583.56;;;6.68;100.00
54389;BME280;40975;50.390;8.640;2023-03-26T16:19:47;97584.91;;;6.72;100.00
54389;BME280;40975;50.390;8.640;2023-03-26T16:27:43;97590.66;;;6.67;100.00
54389;BME280;40975;50.390;8.640;2023-03-26T16:30:29;97594.59;;;6.72;100.00
54389;BME280;40975;50.390;8.640;2023-03-26T16:32:57;97600.56;;;6.74;100.00
54389;BME280;40975;50.390;8.640;2023-03-26T16:36:00;97596.28;;;6.81;100.00
54389;BME280;40975;50.390;8.640;2023-03-26T16:38:26;97606.16;;;6.79;100.00
54389;BME280;40975;50.390;8.640;2023-03-26T16:41:29;97600.75;;;6.80;100.00
54389;BME280;40975;50.390;8.640;2023-03-26T16:46:36;97611.00;;;6.92;100.00
54389;BME280;40975;50.390;8.640;2023-03-26T16:49:29;97607.88;;;6.96;100.00
54389;BME280;40975;50.390;8.640;2023-03-26T16:57:29;97620.03;;;6.89;100.00
54389;BME280;40975;50.390;8.640;2023-03-26T17:11:00;97638.38;;;6.91;100.00
54389;BME280;40975;50.390;8.640;2023-03-26T17:16:48;97647.38;;;6.80;100.00
54389;BME280;40975;50.390;8.640;2023-03-26T17:19:38;97643.72;;;6.73;100.00
54389;BME280;40975;50.390;8.640;2023-03-26T17:22:51;97642.91;;;6.72;100.00
54389;BME280;40975;50.390;8.640;2023-03-26T17:28:19;97651.09;;;6.61;100.00
54389;BME280;40975;50.390;8.640;2023-03-26T17:31:10;97658.31;;;6.59;100.00
54389;BME280;40975;50.390;8.640;2023-03-26T17:33:40;97660.25;;;6.48;100.00
54389;BME280;40975;50.390;8.640;2023-03-26T17:36:17;97660.25;;;6.48;100.00
54389;BME280;40975;50.390;8.640;2023-03-26T17:41:55;97664.81;;;6.38;100.00
54389;BME280;40975;50.390;8.640;2023-03-26T17:44:37;97662.16;;;6.38;100.00
54389;BME280;40975;50.390;8.640;2023-03-26T17:47:11;97658.84;;;6.36;100.00